createdAt,value
2018-07-05T00:01:29.510Z,64.06
2018-07-05T00:04:15.924Z,64.24
2018-07-05T00:07:02.579Z,64.32
2018-07-05T00:09:48.939Z,64.28
2018-07-05T00:12:35.290Z,64.08
2018-07-05T00:15:21.642Z,63.75
2018-07-05T00:18:08.110Z,63.98
2018-07-05T00:20:54.658Z,64.39
2018-07-05T00:23:41.174Z,64.41
2018-07-05T00:26:27.470Z,64.47
2018-07-05T00:29:13.946Z,64.65
2018-07-05T00:32:00.459Z,64.51
2018-07-05T00:34:46.962Z,64.80
2018-07-05T00:37:33.350Z,65.45
2018-07-05T00:40:19.698Z,65.31
2018-07-05T00:43:06.245Z,64.87
2018-07-05T00:45:52.628Z,65.33
2018-07-05T00:48:39.139Z,65.44
2018-07-05T00:51:25.509Z,65.38
2018-07-05T00:54:11.672Z,65.08
2018-07-05T00:56:58.070Z,65.32
2018-07-05T00:59:44.410Z,65.28
2018-07-05T01:02:30.716Z,65.14
2018-07-05T01:05:17.211Z,64.98
2018-07-05T01:08:03.557Z,64.86
2018-07-05T01:10:49.953Z,65.40
2018-07-05T01:13:36.346Z,65.19
2018-07-05T01:16:23.005Z,65.30
2018-07-05T01:19:09.133Z,65.04
2018-07-05T01:21:55.425Z,65.77
2018-07-05T01:24:41.585Z,65.92
2018-07-05T01:27:27.805Z,66.13
2018-07-05T01:30:13.985Z,65.80
2018-07-05T01:33:00.783Z,65.88
2018-07-05T01:35:47.207Z,65.77
2018-07-05T01:38:33.657Z,65.96
2018-07-05T01:41:20.070Z,65.48
2018-07-05T01:44:06.534Z,66.64
2018-07-05T01:46:53.409Z,66.88
2018-07-05T01:49:39.804Z,66.91
2018-07-05T01:52:26.731Z,67.28
2018-07-05T01:55:13.331Z,66.61
2018-07-05T01:57:59.877Z,65.53
2018-07-05T02:00:46.309Z,66.33
2018-07-05T02:03:32.842Z,66.31
2018-07-05T02:06:19.156Z,66.72
2018-07-05T02:09:05.714Z,66.60
2018-07-05T02:11:51.823Z,66.37
2018-07-05T02:14:38.317Z,66.35
2018-07-05T02:17:24.624Z,67.19
2018-07-05T02:20:10.939Z,67.13
2018-07-05T02:22:51.284Z,67.34
2018-07-05T02:25:37.509Z,67.09
2018-07-05T02:28:23.825Z,67.01
2018-07-05T02:31:10.213Z,67.34
2018-07-05T02:33:59.373Z,68.08
2018-07-05T02:36:45.546Z,67.50
2018-07-05T02:39:37.091Z,67.49
2018-07-05T02:42:23.379Z,67.06
2018-07-05T02:45:09.771Z,66.82
2018-07-05T02:47:56.117Z,67.78
2018-07-05T02:50:42.793Z,68.03
2018-07-05T02:53:29.154Z,67.83
2018-07-05T02:56:15.573Z,68.37
2018-07-05T02:59:01.998Z,68.55
2018-07-05T03:01:48.258Z,68.68
2018-07-05T03:04:34.630Z,68.50
2018-07-05T03:07:21.079Z,68.59
2018-07-05T03:10:07.429Z,68.61
2018-07-05T03:12:53.644Z,68.52
2018-07-05T03:15:39.852Z,69.31
2018-07-05T03:18:26.235Z,68.85
2018-07-05T03:21:12.397Z,68.03
2018-07-05T03:23:58.810Z,68.85
2018-07-05T03:26:45.397Z,69.22
2018-07-05T03:29:31.686Z,68.92
2018-07-05T03:32:18.042Z,68.05
2018-07-05T03:35:04.441Z,66.68
2018-07-05T03:37:51.073Z,67.44
2018-07-05T03:40:37.291Z,67.62
2018-07-05T03:43:23.654Z,66.97
2018-07-05T03:46:09.953Z,67.41
2018-07-05T03:48:56.386Z,66.91
2018-07-05T03:51:42.962Z,67.74
2018-07-05T03:54:29.334Z,67.39
2018-07-05T03:57:15.790Z,68.47
2018-07-05T04:00:02.339Z,68.30
2018-07-05T04:02:48.681Z,68.47
2018-07-05T04:05:34.790Z,67.66
2018-07-05T04:08:21.174Z,67.34
2018-07-05T04:11:07.578Z,67.49
2018-07-05T04:13:54.240Z,67.69
2018-07-05T04:16:40.480Z,68.35
2018-07-05T04:19:26.775Z,68.68
2018-07-05T04:22:13.074Z,68.19
2018-07-05T04:24:59.470Z,67.21
2018-07-05T04:27:45.717Z,67.83
2018-07-05T04:30:32.061Z,67.37
2018-07-05T04:33:18.354Z,66.63
2018-07-05T04:36:04.594Z,67.78
2018-07-05T04:38:51.174Z,67.88
2018-07-05T04:41:37.561Z,68.32
2018-07-05T04:44:23.846Z,68.06
2018-07-05T04:47:10.204Z,68.60
2018-07-05T04:49:56.503Z,69.10
2018-07-05T04:52:42.869Z,68.09
2018-07-05T04:55:29.344Z,67.87
2018-07-05T04:58:15.938Z,66.84
2018-07-05T05:01:02.355Z,67.18
2018-07-05T05:03:48.759Z,68.93
2018-07-05T05:06:35.061Z,67.79
2018-07-05T05:09:21.469Z,66.95
2018-07-05T05:12:08.045Z,67.82
2018-07-05T05:14:54.482Z,67.89
2018-07-05T05:17:40.759Z,66.67
2018-07-05T05:20:27.239Z,62.64
2018-07-05T05:23:13.778Z,63.21
2018-07-05T05:26:00.128Z,62.85
2018-07-05T05:28:46.711Z,62.89
2018-07-05T05:31:32.942Z,63.35
2018-07-05T05:34:19.264Z,62.53
2018-07-05T05:37:05.479Z,63.42
2018-07-05T05:39:51.598Z,62.60
2018-07-05T05:42:38.266Z,62.60
2018-07-05T05:45:24.504Z,61.79
2018-07-05T05:48:10.809Z,60.76
2018-07-05T05:50:57.015Z,60.41
2018-07-05T05:53:43.217Z,61.64
2018-07-05T05:56:29.694Z,61.24
2018-07-05T05:59:16.328Z,60.72
2018-07-05T06:02:02.710Z,60.70
2018-07-05T06:04:48.921Z,61.23
2018-07-05T06:07:35.199Z,60.03
2018-07-05T06:10:21.696Z,60.01
2018-07-05T06:13:08.129Z,60.30
2018-07-05T06:15:54.560Z,59.32
2018-07-05T06:18:41.499Z,60.31
2018-07-05T06:21:27.686Z,60.39
2018-07-05T06:24:13.913Z,60.75
2018-07-05T06:27:00.193Z,60.44
2018-07-05T06:29:46.492Z,59.82
2018-07-05T06:32:33.015Z,59.84
2018-07-05T06:35:19.210Z,59.61
2018-07-05T06:38:05.694Z,59.14
2018-07-05T06:40:51.969Z,58.99
2018-07-05T06:43:38.416Z,58.81
2018-07-05T06:46:19.512Z,58.53
2018-07-05T06:49:05.880Z,58.02
2018-07-05T06:51:52.356Z,59.05
2018-07-05T06:54:38.669Z,59.28
2018-07-05T06:57:25.050Z,57.50
2018-07-05T07:00:11.387Z,57.69
2018-07-05T07:02:57.859Z,57.43
2018-07-05T07:05:44.311Z,57.70
2018-07-05T07:08:24.564Z,57.64
2018-07-05T07:11:10.966Z,57.51
2018-07-05T07:13:57.477Z,57.25
2018-07-05T07:16:43.789Z,57.60
2018-07-05T07:19:30.239Z,57.12
2018-07-05T07:22:16.457Z,57.63
2018-07-05T07:25:02.806Z,58.32
2018-07-05T07:27:49.309Z,57.97
2018-07-05T07:30:35.762Z,57.96
2018-07-05T07:33:22.427Z,58.49
2018-07-05T07:36:08.838Z,59.21
2018-07-05T07:38:54.985Z,58.85
2018-07-05T07:41:41.381Z,59.25
2018-07-05T07:44:09.117Z,58.44
2018-07-05T07:46:36.866Z,57.78
2018-07-05T07:49:04.841Z,58.00
2018-07-05T07:51:32.557Z,56.72
2018-07-05T07:54:00.348Z,57.11
2018-07-05T07:56:28.097Z,56.95
2018-07-05T07:58:55.815Z,57.99
2018-07-05T08:01:23.573Z,57.39
2018-07-05T08:03:51.342Z,58.09
2018-07-05T08:06:19.122Z,59.06
2018-07-05T08:08:46.889Z,59.42
2018-07-05T08:11:14.625Z,58.44
2018-07-05T08:13:42.367Z,58.98
2018-07-05T08:16:16.237Z,59.69
2018-07-05T08:18:43.953Z,58.40
2018-07-05T08:21:11.691Z,58.51
2018-07-05T08:23:39.479Z,58.47
2018-07-05T08:26:07.217Z,58.91
2018-07-05T08:28:34.948Z,58.15
2018-07-05T08:31:02.705Z,58.05
2018-07-05T08:33:30.435Z,58.11
2018-07-05T08:35:58.153Z,57.41
2018-07-05T08:38:25.893Z,58.17
2018-07-05T08:40:53.637Z,58.35
2018-07-05T08:43:21.350Z,58.38
2018-07-05T08:45:49.090Z,56.91
2018-07-05T08:48:17.933Z,57.46
2018-07-05T08:50:45.672Z,57.42
2018-07-05T08:53:13.388Z,57.47
2018-07-05T08:55:41.117Z,57.70
2018-07-05T08:58:08.850Z,58.18
2018-07-05T09:00:36.590Z,57.76
2018-07-05T09:03:04.325Z,58.57
2018-07-05T09:05:32.081Z,54.50
2018-07-05T09:08:00.075Z,56.69
2018-07-05T09:10:27.823Z,57.04
2018-07-05T09:12:55.974Z,53.62
2018-07-05T09:15:23.726Z,54.37
2018-07-05T09:17:51.619Z,53.55
2018-07-05T09:20:19.186Z,53.27
2018-07-05T09:22:46.917Z,51.66
2018-07-05T09:25:14.923Z,52.26
2018-07-05T09:27:42.666Z,52.79
2018-07-05T09:30:10.369Z,52.41
2018-07-05T09:32:38.125Z,53.64
2018-07-05T09:35:06.042Z,53.49
2018-07-05T09:37:33.797Z,52.59
2018-07-05T09:40:01.539Z,53.04
2018-07-05T09:42:29.359Z,54.41
2018-07-05T09:44:57.088Z,53.59
2018-07-05T09:47:24.839Z,54.58
2018-07-05T09:49:52.612Z,53.47
2018-07-05T09:52:20.391Z,54.45
2018-07-05T09:54:48.446Z,54.17
2018-07-05T09:57:17.169Z,53.03
2018-07-05T09:59:44.894Z,53.21
2018-07-05T10:02:12.639Z,51.88
2018-07-05T10:04:40.377Z,52.90
2018-07-05T10:07:08.129Z,54.83
2018-07-05T10:09:35.888Z,49.80
2018-07-05T10:12:03.618Z,50.55
2018-07-05T10:14:31.365Z,51.96
2018-07-05T10:16:59.113Z,48.77
2018-07-05T10:19:26.881Z,49.10
2018-07-05T10:21:54.568Z,49.33
2018-07-05T10:24:22.311Z,49.17
2018-07-05T10:26:50.041Z,51.36
2018-07-05T10:29:36.365Z,48.66
2018-07-05T10:32:22.689Z,46.35
2018-07-05T10:34:50.457Z,44.89
2018-07-05T10:37:24.890Z,45.83
2018-07-05T10:40:11.217Z,45.44
2018-07-05T10:42:57.596Z,45.69
2018-07-05T10:45:44.100Z,49.19
2018-07-05T10:48:30.630Z,44.26
2018-07-05T10:51:11.059Z,42.98
2018-07-05T10:53:57.702Z,43.36
2018-07-05T10:56:43.973Z,44.20
2018-07-05T10:59:30.469Z,45.95
2018-07-05T11:02:16.947Z,43.23
2018-07-05T11:05:03.159Z,45.93
2018-07-05T11:07:43.532Z,45.35
2018-07-05T11:10:29.870Z,45.67
2018-07-05T11:13:16.318Z,47.07
2018-07-05T11:16:03.236Z,47.60
2018-07-05T11:18:49.579Z,47.01
2018-07-05T11:21:35.944Z,45.97
2018-07-05T11:24:22.230Z,48.56
2018-07-05T11:27:09.614Z,44.71
2018-07-05T11:29:56.086Z,46.74
2018-07-05T11:32:42.642Z,47.21
2018-07-05T11:35:29.069Z,47.75
2018-07-05T11:38:15.953Z,47.99
2018-07-05T11:41:02.111Z,47.58
2018-07-05T11:43:48.493Z,48.92
2018-07-05T11:46:34.898Z,49.08
2018-07-05T11:49:21.338Z,49.10
2018-07-05T11:52:07.720Z,49.13
2018-07-05T11:54:54.158Z,51.56
2018-07-05T11:57:40.782Z,50.88
2018-07-05T12:00:27.012Z,51.58
2018-07-05T12:03:13.275Z,51.17
2018-07-05T12:05:59.559Z,51.22
2018-07-05T12:08:45.817Z,52.42
2018-07-05T12:11:32.035Z,52.79
2018-07-05T12:14:18.735Z,52.63
2018-07-05T12:17:05.027Z,53.03
2018-07-05T12:19:52.048Z,53.96
2018-07-05T12:22:38.261Z,52.98
2018-07-05T12:25:24.411Z,52.59
2018-07-05T12:28:10.666Z,53.10
2018-07-05T12:30:57.010Z,52.21
2018-07-05T12:33:43.401Z,52.16
2018-07-05T12:36:29.900Z,52.89
2018-07-05T12:39:16.287Z,52.80
2018-07-05T12:42:02.683Z,53.53
2018-07-05T12:44:48.919Z,54.01
2018-07-05T12:47:34.944Z,55.20
2018-07-05T12:50:21.602Z,52.69
2018-07-05T12:53:07.792Z,53.55
2018-07-05T12:55:54.213Z,53.01
2018-07-05T12:58:40.753Z,53.64
2018-07-05T13:01:27.154Z,53.64
2018-07-05T13:04:07.509Z,55.69
2018-07-05T13:06:53.993Z,56.31
2018-07-05T13:09:40.178Z,56.32
2018-07-05T13:12:26.633Z,56.38
2018-07-05T13:15:12.787Z,56.74
2018-07-05T13:17:59.030Z,57.79
2018-07-05T13:20:45.442Z,58.53
2018-07-05T13:23:31.749Z,59.45
2018-07-05T13:26:17.972Z,60.08
2018-07-05T13:29:04.554Z,60.88
2018-07-05T13:31:50.953Z,60.80
2018-07-05T13:34:37.548Z,61.29
2018-07-05T13:37:23.945Z,60.34
2018-07-05T13:40:10.264Z,60.27
2018-07-05T13:42:56.745Z,59.03
2018-07-05T13:45:43.173Z,60.03
2018-07-05T13:48:29.586Z,60.30
2018-07-05T13:51:15.991Z,59.89
2018-07-05T13:54:02.532Z,57.56
2018-07-05T13:56:48.916Z,57.56
2018-07-05T13:59:35.363Z,55.62
2018-07-05T14:02:21.599Z,52.63
2018-07-05T14:05:07.987Z,53.17
2018-07-05T14:07:54.168Z,53.63
2018-07-05T14:10:40.313Z,53.32
2018-07-05T14:13:26.563Z,54.18
2018-07-05T14:16:13.209Z,54.56
2018-07-05T14:18:59.493Z,56.05
2018-07-05T14:21:45.869Z,55.59
2018-07-05T14:24:32.476Z,56.17
2018-07-05T14:27:18.813Z,56.27
2018-07-05T14:30:05.203Z,56.74
2018-07-05T14:32:51.474Z,56.58
2018-07-05T14:35:31.934Z,57.31
2018-07-05T14:38:18.344Z,57.58
2018-07-05T14:41:04.727Z,58.43
2018-07-05T14:43:51.023Z,57.71
2018-07-05T14:46:37.309Z,58.17
2018-07-05T14:49:23.518Z,58.85
2018-07-05T14:52:09.731Z,59.19
2018-07-05T14:54:55.925Z,58.75
2018-07-05T14:57:42.034Z,59.34
2018-07-05T15:00:28.410Z,60.10
2018-07-05T15:03:14.796Z,59.97
2018-07-05T15:06:01.130Z,60.00
2018-07-05T15:08:47.310Z,59.01
2018-07-05T15:11:34.015Z,58.84
2018-07-05T15:14:20.375Z,59.87
2018-07-05T15:17:06.703Z,59.60
2018-07-05T15:19:53.230Z,58.43
2018-07-05T15:22:39.557Z,58.70
2018-07-05T15:25:25.868Z,57.91
2018-07-05T15:28:12.305Z,57.23
2018-07-05T15:30:58.469Z,58.23
2018-07-05T15:33:44.753Z,58.29
2018-07-05T15:36:31.060Z,57.95
2018-07-05T15:39:17.416Z,58.36
2018-07-05T15:42:03.942Z,59.13
2018-07-05T15:44:44.316Z,58.79
2018-07-05T15:47:30.567Z,59.17
2018-07-05T15:50:17.008Z,58.67
2018-07-05T15:53:03.261Z,56.78
2018-07-05T15:55:49.423Z,56.36
2018-07-05T15:58:35.943Z,56.77
2018-07-05T16:01:22.201Z,56.80
2018-07-05T16:04:08.814Z,57.22
2018-07-05T16:06:55.242Z,57.16
2018-07-05T16:09:41.701Z,57.21
2018-07-05T16:12:28.496Z,56.53
2018-07-05T16:15:14.561Z,56.41
2018-07-05T16:18:00.981Z,56.64
2018-07-05T16:20:47.460Z,56.12
2018-07-05T16:23:33.888Z,57.22
2018-07-05T16:26:20.385Z,56.45
2018-07-05T16:29:06.507Z,56.35
2018-07-05T16:31:53.172Z,56.10
2018-07-05T16:34:39.384Z,57.16
2018-07-05T16:37:25.797Z,57.60
2018-07-05T16:40:12.222Z,56.81
2018-07-05T16:42:58.809Z,57.06
2018-07-05T16:45:45.213Z,55.28
2018-07-05T16:48:31.533Z,54.84
2018-07-05T16:51:18.049Z,55.25
2018-07-05T16:54:04.316Z,55.43
2018-07-05T16:56:51.153Z,55.74
2018-07-05T16:59:37.679Z,55.11
2018-07-05T17:02:24.017Z,56.31
2018-07-05T17:05:10.533Z,56.29
2018-07-05T17:07:56.875Z,56.42
2018-07-05T17:10:43.289Z,56.67
2018-07-05T17:13:29.615Z,57.11
2018-07-05T17:16:15.807Z,56.60
2018-07-05T17:19:01.955Z,56.90
2018-07-05T17:21:48.385Z,57.74
2018-07-05T17:24:34.782Z,57.50
2018-07-05T17:27:21.190Z,57.89
2018-07-05T17:30:07.773Z,58.35
2018-07-05T17:32:54.110Z,58.29
2018-07-05T17:35:40.581Z,58.78
2018-07-05T17:38:26.837Z,58.31
2018-07-05T17:41:12.913Z,58.38
2018-07-05T17:43:59.242Z,58.88
2018-07-05T17:46:45.500Z,58.33
2018-07-05T17:49:31.808Z,58.64
2018-07-05T17:52:18.032Z,59.16
2018-07-05T17:55:04.395Z,58.57
2018-07-05T17:57:50.773Z,58.55
2018-07-05T18:00:37.010Z,59.33
2018-07-05T18:03:23.361Z,59.53
2018-07-05T18:06:09.741Z,59.62
2018-07-05T18:08:56.113Z,58.71
2018-07-05T18:11:42.601Z,59.08
2018-07-05T18:14:28.849Z,58.34
2018-07-05T18:17:15.305Z,58.04
2018-07-05T18:20:01.776Z,59.17
2018-07-05T18:22:47.995Z,58.80
2018-07-05T18:25:35.759Z,58.87
2018-07-05T18:28:21.877Z,58.61
2018-07-05T18:31:08.341Z,58.96
2018-07-05T18:33:54.649Z,58.51
2018-07-05T18:36:41.023Z,59.06
2018-07-05T18:39:27.111Z,58.33
2018-07-05T18:42:13.239Z,58.30
2018-07-05T18:44:59.745Z,58.54
2018-07-05T18:47:46.241Z,59.00
2018-07-05T18:50:32.629Z,59.41
2018-07-05T18:53:12.975Z,58.77
2018-07-05T18:55:59.490Z,59.88
2018-07-05T18:58:45.969Z,60.04
2018-07-05T19:01:32.290Z,59.25
2018-07-05T19:04:18.483Z,59.53
2018-07-05T19:07:04.752Z,60.05
2018-07-05T19:09:51.112Z,59.84
2018-07-05T19:12:37.481Z,59.28
2018-07-05T19:15:23.780Z,60.01
2018-07-05T19:18:10.031Z,59.47
2018-07-05T19:20:56.202Z,59.08
2018-07-05T19:23:43.400Z,58.37
2018-07-05T19:26:29.763Z,59.12
2018-07-05T19:29:15.982Z,58.91
2018-07-05T19:32:02.354Z,59.24
2018-07-05T19:34:48.778Z,59.95
2018-07-05T19:37:35.177Z,59.58
2018-07-05T19:40:21.519Z,59.93
2018-07-05T19:43:07.971Z,60.68
2018-07-05T19:45:54.033Z,60.23
2018-07-05T19:48:40.347Z,61.34
2018-07-05T19:51:27.004Z,61.90
2018-07-05T19:54:13.561Z,62.86
2018-07-05T19:56:59.777Z,64.21
2018-07-05T19:59:46.151Z,63.62
2018-07-05T20:02:32.391Z,63.65
2018-07-05T20:05:18.605Z,63.33
2018-07-05T20:08:05.041Z,65.44
2018-07-05T20:10:56.727Z,70.43
2018-07-05T20:13:43.121Z,72.95
2018-07-05T20:16:23.406Z,74.21
2018-07-05T20:19:09.817Z,76.66
2018-07-05T20:21:56.286Z,76.68
2018-07-05T20:24:42.840Z,78.38
2018-07-05T20:27:29.433Z,78.83
2018-07-05T20:30:15.786Z,79.14
2018-07-05T20:33:02.023Z,79.02
2018-07-05T20:35:48.258Z,78.89
2018-07-05T20:38:34.389Z,78.96
2018-07-05T20:41:20.500Z,79.30
2018-07-05T20:44:06.899Z,79.29
2018-07-05T20:46:53.339Z,80.44
2018-07-05T20:49:39.790Z,80.66
2018-07-05T20:52:26.495Z,81.32
2018-07-05T20:55:12.661Z,80.28
2018-07-05T20:57:59.046Z,80.26
2018-07-05T21:00:45.370Z,79.82
2018-07-05T21:03:31.562Z,79.84
2018-07-05T21:06:17.919Z,79.97
2018-07-05T21:09:05.231Z,80.18
2018-07-05T21:11:51.717Z,80.18
2018-07-05T21:14:38.054Z,80.06
2018-07-05T21:17:24.490Z,79.93
2018-07-05T21:20:10.912Z,80.52
2018-07-05T21:22:57.545Z,79.68
2018-07-05T21:25:43.783Z,79.80
2018-07-05T21:28:30.037Z,80.11
2018-07-05T21:31:16.407Z,79.33
2018-07-05T21:34:02.808Z,79.47
2018-07-05T21:36:49.274Z,79.42
2018-07-05T21:39:35.614Z,79.19
2018-07-05T21:42:22.139Z,78.38
2018-07-05T21:45:08.636Z,78.82
2018-07-05T21:47:55.223Z,78.82
2018-07-05T21:50:41.460Z,79.14
2018-07-05T21:53:27.720Z,79.32
2018-07-05T21:56:14.318Z,78.56
2018-07-05T21:59:00.541Z,78.95
2018-07-05T22:01:46.883Z,79.96
2018-07-05T22:04:33.189Z,79.25
2018-07-05T22:07:19.614Z,79.36
2018-07-05T22:10:06.027Z,79.08
2018-07-05T22:12:52.246Z,79.10
2018-07-05T22:15:38.510Z,78.61
2018-07-05T22:18:30.243Z,79.65
2018-07-05T22:21:18.557Z,79.05
2018-07-05T22:24:10.254Z,79.17
2018-07-05T22:26:56.625Z,79.29
2018-07-05T22:29:48.359Z,78.87
2018-07-05T22:32:34.793Z,78.56
2018-07-05T22:35:21.309Z,79.53
2018-07-05T22:38:07.781Z,79.00
2018-07-05T22:40:54.341Z,79.62
2018-07-05T22:43:40.421Z,79.92
2018-07-05T22:46:26.820Z,79.70
2018-07-05T22:49:13.070Z,79.80
2018-07-05T22:51:59.540Z,79.85
2018-07-05T22:54:45.952Z,80.59
2018-07-05T22:57:32.506Z,80.08
2018-07-05T23:00:19.050Z,80.49
2018-07-05T23:03:05.871Z,81.18
2018-07-05T23:05:52.178Z,81.04
2018-07-05T23:08:38.633Z,80.59
2018-07-05T23:11:25.047Z,81.02
2018-07-05T23:14:11.355Z,81.30
2018-07-05T23:16:57.606Z,80.76
2018-07-05T23:19:43.942Z,80.67
2018-07-05T23:22:30.246Z,81.70
2018-07-05T23:25:16.380Z,81.49
2018-07-05T23:28:02.826Z,81.16
2018-07-05T23:30:49.146Z,81.30
2018-07-05T23:33:35.388Z,81.64
2018-07-05T23:36:21.666Z,80.46
2018-07-05T23:39:08.198Z,80.81
2018-07-05T23:41:54.363Z,81.26
2018-07-05T23:44:40.729Z,81.74
2018-07-05T23:47:27.017Z,82.00
2018-07-05T23:50:13.261Z,81.65
2018-07-05T23:52:59.573Z,81.61
2018-07-05T23:55:45.846Z,81.53
2018-07-05T23:58:32.288Z,81.41
